sensor_id;sensor_type;location;lat;lon;timestamp;P1;durP1;ratioP1;P2;durP2;ratioP2
75520;SDS011;64102;48.628;9.002;2023-05-28T00:00:08;6.95;;;0.70;;
75520;SDS011;64102;48.628;9.002;2023-05-28T00:02:36;7.75;;;0.95;;
75520;SDS011;64102;48.628;9.002;2023-05-28T00:05:02;7.97;;;0.82;;
75520;SDS011;64102;48.628;9.002;2023-05-28T00:07:30;7.88;;;1.05;;
75520;SDS011;64102;48.628;9.002;2023-05-28T00:09:59;9.83;;;0.83;;
75520;SDS011;64102;48.628;9.002;2023-05-28T00:12:24;7.97;;;0.90;;
75520;SDS011;64102;48.628;9.002;2023-05-28T00:14:50;7.68;;;0.90;;
75520;SDS011;64102;48.628;9.002;2023-05-28T00:17:16;6.47;;;0.80;;
75520;SDS011;64102;48.628;9.002;2023-05-28T00:19:42;9.77;;;1.00;;
75520;SDS011;64102;48.628;9.002;2023-05-28T00:22:08;8.20;;;0.93;;
75520;SDS011;64102;48.628;9.002;2023-05-28T00:24:33;8.60;;;1.00;;
75520;SDS011;64102;48.628;9.002;2023-05-28T00:26:59;9.03;;;0.90;;
75520;SDS011;64102;48.628;9.002;2023-05-28T00:29:24;7.23;;;0.90;;
75520;SDS011;64102;48.628;9.002;2023-05-28T00:31:51;8.05;;;1.08;;
75520;SDS011;64102;48.628;9.002;2023-05-28T00:34:20;10.07;;;0.93;;
75520;SDS011;64102;48.628;9.002;2023-05-28T00:36:46;6.75;;;0.70;;
75520;SDS011;64102;48.628;9.002;2023-05-28T00:39:11;8.48;;;1.15;;
75520;SDS011;64102;48.628;9.002;2023-05-28T00:41:36;7.77;;;1.00;;
75520;SDS011;64102;48.628;9.002;2023-05-28T00:44:03;7.53;;;0.88;;
75520;SDS011;64102;48.628;9.002;2023-05-28T00:46:29;7.55;;;0.80;;
75520;SDS011;64102;48.628;9.002;2023-05-28T00:48:54;9.13;;;1.17;;
75520;SDS011;64102;48.628;9.002;2023-05-28T00:51:20;11.02;;;1.40;;
75520;SDS011;64102;48.628;9.002;2023-05-28T00:53:45;8.23;;;1.27;;
75520;SDS011;64102;48.628;9.002;2023-05-28T00:56:11;7.10;;;0.90;;
75520;SDS011;64102;48.628;9.002;2023-05-28T00:58:38;7.35;;;0.93;;
75520;SDS011;64102;48.628;9.002;2023-05-28T01:01:05;7.13;;;0.90;;
75520;SDS011;64102;48.628;9.002;2023-05-28T01:03:31;8.05;;;1.25;;
75520;SDS011;64102;48.628;9.002;2023-05-28T01:05:57;8.40;;;0.95;;
75520;SDS011;64102;48.628;9.002;2023-05-28T01:08:26;7.35;;;0.70;;
75520;SDS011;64102;48.628;9.002;2023-05-28T01:10:52;8.00;;;1.08;;
75520;SDS011;64102;48.628;9.002;2023-05-28T01:13:17;7.70;;;0.80;;
75520;SDS011;64102;48.628;9.002;2023-05-28T01:15:43;7.65;;;1.00;;
75520;SDS011;64102;48.628;9.002;2023-05-28T01:18:08;8.82;;;1.17;;
75520;SDS011;64102;48.628;9.002;2023-05-28T01:20:34;8.30;;;1.02;;
75520;SDS011;64102;48.628;9.002;2023-05-28T01:23:05;9.23;;;1.13;;
75520;SDS011;64102;48.628;9.002;2023-05-28T01:25:32;9.68;;;1.00;;
75520;SDS011;64102;48.628;9.002;2023-05-28T01:27:59;7.70;;;0.63;;
75520;SDS011;64102;48.628;9.002;2023-05-28T01:30:26;7.75;;;0.93;;
75520;SDS011;64102;48.628;9.002;2023-05-28T01:32:52;8.35;;;0.80;;
75520;SDS011;64102;48.628;9.002;2023-05-28T01:35:17;8.68;;;0.70;;
75520;SDS011;64102;48.628;9.002;2023-05-28T01:37:50;7.15;;;0.65;;
75520;SDS011;64102;48.628;9.002;2023-05-28T01:40:18;7.32;;;0.80;;
75520;SDS011;64102;48.628;9.002;2023-05-28T01:42:43;8.88;;;0.75;;
75520;SDS011;64102;48.628;9.002;2023-05-28T01:45:11;6.43;;;0.82;;
75520;SDS011;64102;48.628;9.002;2023-05-28T01:47:38;8.52;;;1.00;;
75520;SDS011;64102;48.628;9.002;2023-05-28T01:50:05;6.70;;;0.60;;
75520;SDS011;64102;48.628;9.002;2023-05-28T01:52:31;6.97;;;1.00;;
75520;SDS011;64102;48.628;9.002;2023-05-28T01:54:56;9.57;;;1.33;;
75520;SDS011;64102;48.628;9.002;2023-05-28T01:57:22;8.45;;;0.88;;
75520;SDS011;64102;48.628;9.002;2023-05-28T01:59:48;10.93;;;1.25;;
75520;SDS011;64102;48.628;9.002;2023-05-28T02:02:13;8.37;;;1.07;;
75520;SDS011;64102;48.628;9.002;2023-05-28T02:04:39;8.25;;;0.95;;
75520;SDS011;64102;48.628;9.002;2023-05-28T02:07:04;8.90;;;1.42;;
75520;SDS011;64102;48.628;9.002;2023-05-28T02:09:30;9.32;;;0.90;;
75520;SDS011;64102;48.628;9.002;2023-05-28T02:11:57;10.05;;;1.15;;
75520;SDS011;64102;48.628;9.002;2023-05-28T02:14:27;6.78;;;0.93;;
75520;SDS011;64102;48.628;9.002;2023-05-28T02:16:53;8.75;;;0.85;;
75520;SDS011;64102;48.628;9.002;2023-05-28T02:19:19;6.93;;;0.80;;
75520;SDS011;64102;48.628;9.002;2023-05-28T02:21:44;6.53;;;0.65;;
75520;SDS011;64102;48.628;9.002;2023-05-28T02:24:10;8.65;;;0.98;;
75520;SDS011;64102;48.628;9.002;2023-05-28T02:26:36;8.83;;;0.90;;
75520;SDS011;64102;48.628;9.002;2023-05-28T02:29:01;7.75;;;0.70;;
75520;SDS011;64102;48.628;9.002;2023-05-28T02:31:27;11.55;;;0.95;;
75520;SDS011;64102;48.628;9.002;2023-05-28T02:33:52;11.00;;;0.93;;
75520;SDS011;64102;48.628;9.002;2023-05-28T02:36:17;6.60;;;0.80;;
75520;SDS011;64102;48.628;9.002;2023-05-28T02:38:43;6.75;;;0.65;;
75520;SDS011;64102;48.628;9.002;2023-05-28T02:41:09;9.68;;;0.93;;
75520;SDS011;64102;48.628;9.002;2023-05-28T02:43:34;4.93;;;0.40;;
75520;SDS011;64102;48.628;9.002;2023-05-28T02:46:00;6.80;;;0.80;;
75520;SDS011;64102;48.628;9.002;2023-05-28T02:48:26;7.30;;;1.17;;
75520;SDS011;64102;48.628;9.002;2023-05-28T02:50:51;7.10;;;0.85;;
75520;SDS011;64102;48.628;9.002;2023-05-28T02:53:20;7.18;;;0.93;;
75520;SDS011;64102;48.628;9.002;2023-05-28T02:55:46;5.00;;;0.70;;
75520;SDS011;64102;48.628;9.002;2023-05-28T02:58:12;6.90;;;0.85;;
75520;SDS011;64102;48.628;9.002;2023-05-28T03:00:39;9.25;;;0.90;;
75520;SDS011;64102;48.628;9.002;2023-05-28T03:03:05;6.65;;;0.93;;
75520;SDS011;64102;48.628;9.002;2023-05-28T03:05:30;8.40;;;1.02;;
75520;SDS011;64102;48.628;9.002;2023-05-28T03:07:59;8.25;;;0.90;;
75520;SDS011;64102;48.628;9.002;2023-05-28T03:10:24;8.88;;;1.27;;
75520;SDS011;64102;48.628;9.002;2023-05-28T03:12:50;8.73;;;1.17;;
75520;SDS011;64102;48.628;9.002;2023-05-28T03:15:15;9.37;;;0.90;;
75520;SDS011;64102;48.628;9.002;2023-05-28T03:17:41;8.90;;;0.80;;
75520;SDS011;64102;48.628;9.002;2023-05-28T03:20:06;8.95;;;0.75;;
75520;SDS011;64102;48.628;9.002;2023-05-28T03:22:35;6.55;;;0.70;;
75520;SDS011;64102;48.628;9.002;2023-05-28T03:25:04;7.07;;;0.60;;
75520;SDS011;64102;48.628;9.002;2023-05-28T03:27:31;7.85;;;0.73;;
75520;SDS011;64102;48.628;9.002;2023-05-28T03:29:56;7.40;;;0.60;;
75520;SDS011;64102;48.628;9.002;2023-05-28T03:32:22;10.87;;;1.30;;
75520;SDS011;64102;48.628;9.002;2023-05-28T03:34:47;9.27;;;0.70;;
75520;SDS011;64102;48.628;9.002;2023-05-28T03:37:12;7.63;;;0.60;;
75520;SDS011;64102;48.628;9.002;2023-05-28T03:39:38;7.93;;;0.90;;
75520;SDS011;64102;48.628;9.002;2023-05-28T03:42:03;7.10;;;0.67;;
75520;SDS011;64102;48.628;9.002;2023-05-28T03:44:30;8.35;;;0.98;;
75520;SDS011;64102;48.628;9.002;2023-05-28T03:46:55;5.70;;;0.40;;
75520;SDS011;64102;48.628;9.002;2023-05-28T03:49:21;8.20;;;0.60;;
75520;SDS011;64102;48.628;9.002;2023-05-28T03:51:46;7.50;;;0.70;;
75520;SDS011;64102;48.628;9.002;2023-05-28T03:54:11;6.40;;;0.50;;
75520;SDS011;64102;48.628;9.002;2023-05-28T03:56:37;8.00;;;1.20;;
75520;SDS011;64102;48.628;9.002;2023-05-28T03:59:02;7.83;;;0.60;;
75520;SDS011;64102;48.628;9.002;2023-05-28T04:01:28;8.43;;;1.02;;
75520;SDS011;64102;48.628;9.002;2023-05-28T04:03:53;7.15;;;0.77;;
75520;SDS011;64102;48.628;9.002;2023-05-28T04:06:20;7.47;;;0.63;;
75520;SDS011;64102;48.628;9.002;2023-05-28T04:08:46;7.40;;;1.05;;
75520;SDS011;64102;48.628;9.002;2023-05-28T04:11:12;7.40;;;1.00;;
75520;SDS011;64102;48.628;9.002;2023-05-28T04:13:37;7.03;;;0.50;;
75520;SDS011;64102;48.628;9.002;2023-05-28T04:16:03;9.30;;;1.15;;
75520;SDS011;64102;48.628;9.002;2023-05-28T04:18:28;7.78;;;0.80;;
75520;SDS011;64102;48.628;9.002;2023-05-28T04:20:53;7.70;;;0.93;;
75520;SDS011;64102;48.628;9.002;2023-05-28T04:23:19;8.23;;;1.00;;
75520;SDS011;64102;48.628;9.002;2023-05-28T04:25:44;9.83;;;1.10;;
75520;SDS011;64102;48.628;9.002;2023-05-28T04:28:10;13.13;;;1.65;;
75520;SDS011;64102;48.628;9.002;2023-05-28T04:30:36;6.15;;;0.80;;
75520;SDS011;64102;48.628;9.002;2023-05-28T04:33:01;8.68;;;0.90;;
75520;SDS011;64102;48.628;9.002;2023-05-28T04:35:27;9.63;;;0.82;;
75520;SDS011;64102;48.628;9.002;2023-05-28T04:37:54;10.52;;;1.70;;
75520;SDS011;64102;48.628;9.002;2023-05-28T04:40:19;10.18;;;1.92;;
75520;SDS011;64102;48.628;9.002;2023-05-28T04:42:46;11.93;;;1.65;;
75520;SDS011;64102;48.628;9.002;2023-05-28T04:45:12;9.93;;;1.63;;
75520;SDS011;64102;48.628;9.002;2023-05-28T04:47:38;8.05;;;0.82;;
75520;SDS011;64102;48.628;9.002;2023-05-28T04:50:04;7.65;;;0.65;;
75520;SDS011;64102;48.628;9.002;2023-05-28T04:52:31;9.32;;;0.90;;
75520;SDS011;64102;48.628;9.002;2023-05-28T04:54:58;6.15;;;0.80;;
75520;SDS011;64102;48.628;9.002;2023-05-28T04:57:24;11.13;;;0.95;;
75520;SDS011;64102;48.628;9.002;2023-05-28T04:59:49;8.02;;;0.70;;
75520;SDS011;64102;48.628;9.002;2023-05-28T05:02:15;6.13;;;0.80;;
75520;SDS011;64102;48.628;9.002;2023-05-28T05:04:44;9.75;;;1.05;;
75520;SDS011;64102;48.628;9.002;2023-05-28T05:07:11;11.27;;;1.30;;
75520;SDS011;64102;48.628;9.002;2023-05-28T05:09:37;10.50;;;1.17;;
75520;SDS011;64102;48.628;9.002;2023-05-28T05:12:02;13.52;;;1.27;;
75520;SDS011;64102;48.628;9.002;2023-05-28T05:14:28;8.68;;;1.13;;
75520;SDS011;64102;48.628;9.002;2023-05-28T05:16:53;9.67;;;1.27;;
75520;SDS011;64102;48.628;9.002;2023-05-28T05:19:18;8.63;;;1.27;;
75520;SDS011;64102;48.628;9.002;2023-05-28T05:21:44;8.90;;;1.20;;
75520;SDS011;64102;48.628;9.002;2023-05-28T05:24:09;9.25;;;1.48;;
75520;SDS011;64102;48.628;9.002;2023-05-28T05:26:35;8.77;;;1.30;;
75520;SDS011;64102;48.628;9.002;2023-05-28T05:29:00;7.87;;;1.20;;
75520;SDS011;64102;48.628;9.002;2023-05-28T05:31:25;8.60;;;1.00;;
75520;SDS011;64102;48.628;9.002;2023-05-28T05:33:51;9.67;;;1.30;;
75520;SDS011;64102;48.628;9.002;2023-05-28T05:36:16;8.30;;;0.93;;
75520;SDS011;64102;48.628;9.002;2023-05-28T05:38:41;7.93;;;0.90;;
75520;SDS011;64102;48.628;9.002;2023-05-28T05:41:07;9.43;;;1.30;;
75520;SDS011;64102;48.628;9.002;2023-05-28T05:43:32;9.18;;;1.70;;
75520;SDS011;64102;48.628;9.002;2023-05-28T05:45:58;8.75;;;1.13;;
75520;SDS011;64102;48.628;9.002;2023-05-28T05:48:25;8.73;;;1.17;;
75520;SDS011;64102;48.628;9.002;2023-05-28T05:50:52;9.18;;;1.27;;
75520;SDS011;64102;48.628;9.002;2023-05-28T05:53:23;9.43;;;1.30;;
75520;SDS011;64102;48.628;9.002;2023-05-28T05:55:48;7.70;;;1.05;;
75520;SDS011;64102;48.628;9.002;2023-05-28T05:58:14;7.72;;;1.20;;
75520;SDS011;64102;48.628;9.002;2023-05-28T06:00:40;9.73;;;1.25;;
75520;SDS011;64102;48.628;9.002;2023-05-28T06:03:06;10.15;;;1.17;;
75520;SDS011;64102;48.628;9.002;2023-05-28T06:05:32;7.35;;;1.00;;
75520;SDS011;64102;48.628;9.002;2023-05-28T06:07:58;8.50;;;1.42;;
75520;SDS011;64102;48.628;9.002;2023-05-28T06:10:23;7.85;;;1.00;;
75520;SDS011;64102;48.628;9.002;2023-05-28T06:12:48;8.47;;;0.97;;
75520;SDS011;64102;48.628;9.002;2023-05-28T06:15:14;7.47;;;1.00;;
75520;SDS011;64102;48.628;9.002;2023-05-28T06:17:39;9.40;;;1.40;;
75520;SDS011;64102;48.628;9.002;2023-05-28T06:20:06;7.95;;;1.10;;
75520;SDS011;64102;48.628;9.002;2023-05-28T06:22:32;8.93;;;1.02;;
75520;SDS011;64102;48.628;9.002;2023-05-28T06:24:58;10.48;;;1.63;;
75520;SDS011;64102;48.628;9.002;2023-05-28T06:27:25;8.85;;;1.45;;
75520;SDS011;64102;48.628;9.002;2023-05-28T06:29:51;6.80;;;1.65;;
75520;SDS011;64102;48.628;9.002;2023-05-28T06:32:16;8.35;;;1.40;;
75520;SDS011;64102;48.628;9.002;2023-05-28T06:34:42;7.38;;;2.28;;
75520;SDS011;64102;48.628;9.002;2023-05-28T06:37:08;8.25;;;1.70;;
75520;SDS011;64102;48.628;9.002;2023-05-28T06:39:33;8.10;;;1.52;;
75520;SDS011;64102;48.628;9.002;2023-05-28T06:41:59;8.70;;;1.57;;
75520;SDS011;64102;48.628;9.002;2023-05-28T06:44:24;10.07;;;1.83;;
75520;SDS011;64102;48.628;9.002;2023-05-28T06:46:49;7.55;;;1.75;;
75520;SDS011;64102;48.628;9.002;2023-05-28T06:49:15;7.78;;;1.95;;
75520;SDS011;64102;48.628;9.002;2023-05-28T06:51:40;9.40;;;2.13;;
75520;SDS011;64102;48.628;9.002;2023-05-28T06:54:05;8.98;;;1.98;;
75520;SDS011;64102;48.628;9.002;2023-05-28T06:56:31;8.83;;;2.00;;
75520;SDS011;64102;48.628;9.002;2023-05-28T06:58:56;9.05;;;2.28;;
75520;SDS011;64102;48.628;9.002;2023-05-28T07:01:22;9.27;;;2.38;;
75520;SDS011;64102;48.628;9.002;2023-05-28T07:03:47;9.00;;;2.10;;
75520;SDS011;64102;48.628;9.002;2023-05-28T07:06:12;7.80;;;1.80;;
75520;SDS011;64102;48.628;9.002;2023-05-28T07:08:39;7.10;;;2.13;;
75520;SDS011;64102;48.628;9.002;2023-05-28T07:11:12;8.43;;;2.03;;
75520;SDS011;64102;48.628;9.002;2023-05-28T07:13:38;7.55;;;2.50;;
75520;SDS011;64102;48.628;9.002;2023-05-28T07:16:05;8.02;;;2.67;;
75520;SDS011;64102;48.628;9.002;2023-05-28T07:18:31;8.88;;;2.35;;
75520;SDS011;64102;48.628;9.002;2023-05-28T07:20:57;7.80;;;2.95;;
75520;SDS011;64102;48.628;9.002;2023-05-28T07:23:22;9.07;;;2.90;;
75520;SDS011;64102;48.628;9.002;2023-05-28T07:25:49;6.63;;;1.33;;
75520;SDS011;64102;48.628;9.002;2023-05-28T07:28:14;7.97;;;2.60;;
75520;SDS011;64102;48.628;9.002;2023-05-28T07:30:43;10.73;;;3.33;;
75520;SDS011;64102;48.628;9.002;2023-05-28T07:33:08;8.65;;;2.55;;
75520;SDS011;64102;48.628;9.002;2023-05-28T07:35:33;8.45;;;2.97;;
75520;SDS011;64102;48.628;9.002;2023-05-28T07:38:01;8.68;;;3.47;;
75520;SDS011;64102;48.628;9.002;2023-05-28T07:40:27;9.02;;;3.88;;
75520;SDS011;64102;48.628;9.002;2023-05-28T07:42:52;9.68;;;3.85;;
75520;SDS011;64102;48.628;9.002;2023-05-28T07:45:18;10.30;;;4.57;;
75520;SDS011;64102;48.628;9.002;2023-05-28T07:47:43;7.28;;;3.13;;
75520;SDS011;64102;48.628;9.002;2023-05-28T07:50:09;8.98;;;3.70;;
75520;SDS011;64102;48.628;9.002;2023-05-28T07:52:35;10.32;;;3.22;;
75520;SDS011;64102;48.628;9.002;2023-05-28T07:55:01;8.77;;;2.92;;
75520;SDS011;64102;48.628;9.002;2023-05-28T07:57:28;7.40;;;2.92;;
75520;SDS011;64102;48.628;9.002;2023-05-28T07:59:53;8.02;;;3.17;;
75520;SDS011;64102;48.628;9.002;2023-05-28T08:02:19;8.70;;;3.45;;
75520;SDS011;64102;48.628;9.002;2023-05-28T08:04:44;11.05;;;3.35;;
75520;SDS011;64102;48.628;9.002;2023-05-28T08:07:10;8.63;;;4.80;;
75520;SDS011;64102;48.628;9.002;2023-05-28T08:09:37;8.73;;;3.95;;
75520;SDS011;64102;48.628;9.002;2023-05-28T08:12:02;7.63;;;3.22;;
75520;SDS011;64102;48.628;9.002;2023-05-28T08:14:28;8.63;;;3.22;;
75520;SDS011;64102;48.628;9.002;2023-05-28T08:16:53;8.35;;;3.20;;
75520;SDS011;64102;48.628;9.002;2023-05-28T08:19:19;9.68;;;3.80;;
75520;SDS011;64102;48.628;9.002;2023-05-28T08:21:44;10.48;;;3.58;;
75520;SDS011;64102;48.628;9.002;2023-05-28T08:24:10;9.77;;;4.90;;
75520;SDS011;64102;48.628;9.002;2023-05-28T08:26:36;8.90;;;4.90;;
75520;SDS011;64102;48.628;9.002;2023-05-28T08:29:02;7.20;;;2.20;;
75520;SDS011;64102;48.628;9.002;2023-05-28T08:31:29;8.43;;;4.30;;
75520;SDS011;64102;48.628;9.002;2023-05-28T08:33:55;7.28;;;4.60;;
75520;SDS011;64102;48.628;9.002;2023-05-28T08:36:20;7.97;;;4.80;;
75520;SDS011;64102;48.628;9.002;2023-05-28T08:38:46;7.65;;;5.15;;
75520;SDS011;64102;48.628;9.002;2023-05-28T08:41:11;8.37;;;3.70;;
75520;SDS011;64102;48.628;9.002;2023-05-28T08:43:37;9.65;;;4.93;;
75520;SDS011;64102;48.628;9.002;2023-05-28T08:46:02;10.30;;;4.45;;
75520;SDS011;64102;48.628;9.002;2023-05-28T08:48:30;8.27;;;4.65;;
75520;SDS011;64102;48.628;9.002;2023-05-28T08:50:58;8.68;;;4.70;;
75520;SDS011;64102;48.628;9.002;2023-05-28T08:53:24;9.18;;;4.88;;
75520;SDS011;64102;48.628;9.002;2023-05-28T08:55:54;8.52;;;3.35;;
75520;SDS011;64102;48.628;9.002;2023-05-28T08:58:20;8.25;;;3.35;;
75520;SDS011;64102;48.628;9.002;2023-05-28T09:00:46;9.82;;;2.92;;
75520;SDS011;64102;48.628;9.002;2023-05-28T09:03:12;8.60;;;3.08;;
75520;SDS011;64102;48.628;9.002;2023-05-28T09:05:37;9.15;;;2.83;;
75520;SDS011;64102;48.628;9.002;2023-05-28T09:08:07;9.43;;;3.60;;
75520;SDS011;64102;48.628;9.002;2023-05-28T09:10:35;8.38;;;3.83;;
75520;SDS011;64102;48.628;9.002;2023-05-28T09:13:01;7.97;;;5.15;;
75520;SDS011;64102;48.628;9.002;2023-05-28T09:15:27;8.18;;;2.92;;
75520;SDS011;64102;48.628;9.002;2023-05-28T09:17:54;9.13;;;5.20;;
75520;SDS011;64102;48.628;9.002;2023-05-28T09:20:21;8.23;;;3.97;;
75520;SDS011;64102;48.628;9.002;2023-05-28T09:22:56;8.38;;;4.55;;
75520;SDS011;64102;48.628;9.002;2023-05-28T09:25:26;8.45;;;5.07;;
75520;SDS011;64102;48.628;9.002;2023-05-28T09:27:54;10.25;;;4.78;;
75520;SDS011;64102;48.628;9.002;2023-05-28T09:30:20;9.55;;;4.18;;
75520;SDS011;64102;48.628;9.002;2023-05-28T09:32:48;8.88;;;5.20;;
75520;SDS011;64102;48.628;9.002;2023-05-28T09:35:20;9.75;;;5.50;;
75520;SDS011;64102;48.628;9.002;2023-05-28T09:37:46;9.70;;;5.60;;
75520;SDS011;64102;48.628;9.002;2023-05-28T09:40:11;7.57;;;4.93;;
75520;SDS011;64102;48.628;9.002;2023-05-28T09:42:38;9.02;;;3.55;;
75520;SDS011;64102;48.628;9.002;2023-05-28T09:45:09;8.13;;;3.72;;
75520;SDS011;64102;48.628;9.002;2023-05-28T09:47:44;8.10;;;4.75;;
75520;SDS011;64102;48.628;9.002;2023-05-28T09:50:10;9.73;;;4.97;;
75520;SDS011;64102;48.628;9.002;2023-05-28T09:52:39;7.75;;;4.55;;
75520;SDS011;64102;48.628;9.002;2023-05-28T09:55:08;7.25;;;3.05;;
75520;SDS011;64102;48.628;9.002;2023-05-28T09:57:46;9.25;;;2.80;;
75520;SDS011;64102;48.628;9.002;2023-05-28T10:00:32;10.13;;;3.10;;
75520;SDS011;64102;48.628;9.002;2023-05-28T10:05:59;9.02;;;4.68;;
75520;SDS011;64102;48.628;9.002;2023-05-28T10:08:26;7.50;;;3.85;;
75520;SDS011;64102;48.628;9.002;2023-05-28T10:10:53;8.75;;;3.83;;
75520;SDS011;64102;48.628;9.002;2023-05-28T10:13:22;9.50;;;4.95;;
75520;SDS011;64102;48.628;9.002;2023-05-28T10:15:48;6.82;;;2.70;;
75520;SDS011;64102;48.628;9.002;2023-05-28T10:18:14;8.98;;;3.67;;
75520;SDS011;64102;48.628;9.002;2023-05-28T10:20:42;8.75;;;3.83;;
75520;SDS011;64102;48.628;9.002;2023-05-28T10:23:08;7.53;;;4.60;;
75520;SDS011;64102;48.628;9.002;2023-05-28T10:25:34;7.97;;;4.88;;
75520;SDS011;64102;48.628;9.002;2023-05-28T10:28:00;6.93;;;2.47;;
75520;SDS011;64102;48.628;9.002;2023-05-28T10:30:30;9.25;;;4.47;;
75520;SDS011;64102;48.628;9.002;2023-05-28T10:32:57;9.35;;;3.38;;
75520;SDS011;64102;48.628;9.002;2023-05-28T10:35:23;8.50;;;4.40;;
75520;SDS011;64102;48.628;9.002;2023-05-28T10:37:49;8.52;;;4.25;;
75520;SDS011;64102;48.628;9.002;2023-05-28T10:40:23;9.45;;;3.83;;
75520;SDS011;64102;48.628;9.002;2023-05-28T10:42:49;9.32;;;4.43;;
75520;SDS011;64102;48.628;9.002;2023-05-28T10:45:14;9.35;;;5.68;;
75520;SDS011;64102;48.628;9.002;2023-05-28T10:47:41;9.00;;;5.47;;
75520;SDS011;64102;48.628;9.002;2023-05-28T10:52:33;8.75;;;4.45;;
75520;SDS011;64102;48.628;9.002;2023-05-28T10:55:01;7.32;;;3.85;;
75520;SDS011;64102;48.628;9.002;2023-05-28T10:57:38;7.32;;;6.07;;
75520;SDS011;64102;48.628;9.002;2023-05-28T11:00:13;10.88;;;7.03;;
75520;SDS011;64102;48.628;9.002;2023-05-28T11:02:50;8.43;;;4.93;;
75520;SDS011;64102;48.628;9.002;2023-05-28T11:05:17;8.27;;;4.30;;
75520;SDS011;64102;48.628;9.002;2023-05-28T11:07:48;7.50;;;4.78;;
75520;SDS011;64102;48.628;9.002;2023-05-28T11:10:15;9.38;;;4.15;;
75520;SDS011;64102;48.628;9.002;2023-05-28T11:12:41;9.32;;;4.93;;
75520;SDS011;64102;48.628;9.002;2023-05-28T11:15:08;7.70;;;3.72;;
75520;SDS011;64102;48.628;9.002;2023-05-28T11:17:42;9.70;;;4.90;;
75520;SDS011;64102;48.628;9.002;2023-05-28T11:22:45;9.05;;;4.78;;
75520;SDS011;64102;48.628;9.002;2023-05-28T11:25:11;8.35;;;4.57;;
75520;SDS011;64102;48.628;9.002;2023-05-28T11:27:37;8.00;;;2.63;;
75520;SDS011;64102;48.628;9.002;2023-05-28T11:32:33;9.68;;;4.30;;
75520;SDS011;64102;48.628;9.002;2023-05-28T11:34:59;9.15;;;5.90;;
75520;SDS011;64102;48.628;9.002;2023-05-28T11:37:29;8.38;;;4.43;;
75520;SDS011;64102;48.628;9.002;2023-05-28T11:39:57;9.45;;;5.43;;
75520;SDS011;64102;48.628;9.002;2023-05-28T11:42:24;8.70;;;6.10;;
75520;SDS011;64102;48.628;9.002;2023-05-28T11:44:51;7.50;;;4.20;;
75520;SDS011;64102;48.628;9.002;2023-05-28T11:47:17;6.75;;;3.72;;
75520;SDS011;64102;48.628;9.002;2023-05-28T11:49:43;8.95;;;3.85;;
75520;SDS011;64102;48.628;9.002;2023-05-28T11:52:10;7.57;;;2.95;;
75520;SDS011;64102;48.628;9.002;2023-05-28T11:54:41;6.40;;;2.63;;
75520;SDS011;64102;48.628;9.002;2023-05-28T11:57:08;9.68;;;3.10;;
75520;SDS011;64102;48.628;9.002;2023-05-28T11:59:34;7.93;;;4.68;;
75520;SDS011;64102;48.628;9.002;2023-05-28T12:02:10;7.00;;;2.42;;
75520;SDS011;64102;48.628;9.002;2023-05-28T12:05:00;8.23;;;5.80;;
75520;SDS011;64102;48.628;9.002;2023-05-28T12:07:33;8.85;;;4.70;;
75520;SDS011;64102;48.628;9.002;2023-05-28T12:10:07;10.73;;;5.10;;
75520;SDS011;64102;48.628;9.002;2023-05-28T12:12:35;9.60;;;4.30;;
75520;SDS011;64102;48.628;9.002;2023-05-28T12:15:04;9.82;;;3.92;;
75520;SDS011;64102;48.628;9.002;2023-05-28T12:17:37;8.27;;;3.25;;
75520;SDS011;64102;48.628;9.002;2023-05-28T12:20:04;8.27;;;3.17;;
75520;SDS011;64102;48.628;9.002;2023-05-28T12:22:31;7.72;;;3.72;;
75520;SDS011;64102;48.628;9.002;2023-05-28T12:24:57;9.52;;;4.80;;
75520;SDS011;64102;48.628;9.002;2023-05-28T12:27:22;8.95;;;5.25;;
75520;SDS011;64102;48.628;9.002;2023-05-28T12:29:47;7.75;;;6.13;;
75520;SDS011;64102;48.628;9.002;2023-05-28T12:32:13;8.25;;;4.50;;
75520;SDS011;64102;48.628;9.002;2023-05-28T12:34:38;7.30;;;3.73;;
75520;SDS011;64102;48.628;9.002;2023-05-28T12:37:04;9.23;;;6.53;;
75520;SDS011;64102;48.628;9.002;2023-05-28T12:39:30;10.10;;;9.13;;
75520;SDS011;64102;48.628;9.002;2023-05-28T12:41:56;7.72;;;4.13;;
75520;SDS011;64102;48.628;9.002;2023-05-28T12:44:21;7.77;;;3.67;;
75520;SDS011;64102;48.628;9.002;2023-05-28T12:46:46;7.68;;;4.38;;
75520;SDS011;64102;48.628;9.002;2023-05-28T12:49:12;7.90;;;5.03;;
75520;SDS011;64102;48.628;9.002;2023-05-28T12:51:37;9.15;;;5.47;;
75520;SDS011;64102;48.628;9.002;2023-05-28T12:54:04;8.82;;;4.03;;
75520;SDS011;64102;48.628;9.002;2023-05-28T12:56:31;9.85;;;4.72;;
75520;SDS011;64102;48.628;9.002;2023-05-28T12:58:57;8.35;;;4.88;;
75520;SDS011;64102;48.628;9.002;2023-05-28T13:01:23;8.10;;;3.72;;
75520;SDS011;64102;48.628;9.002;2023-05-28T13:03:49;8.38;;;5.68;;
75520;SDS011;64102;48.628;9.002;2023-05-28T13:06:16;7.97;;;3.92;;
75520;SDS011;64102;48.628;9.002;2023-05-28T13:08:41;9.07;;;4.15;;
75520;SDS011;64102;48.628;9.002;2023-05-28T13:11:06;8.83;;;4.77;;
75520;SDS011;64102;48.628;9.002;2023-05-28T13:13:32;8.77;;;4.85;;
75520;SDS011;64102;48.628;9.002;2023-05-28T13:15:57;9.77;;;4.75;;
75520;SDS011;64102;48.628;9.002;2023-05-28T13:18:22;10.07;;;4.43;;
75520;SDS011;64102;48.628;9.002;2023-05-28T13:20:48;11.27;;;6.38;;
75520;SDS011;64102;48.628;9.002;2023-05-28T13:23:13;7.70;;;3.77;;
75520;SDS011;64102;48.628;9.002;2023-05-28T13:25:38;9.13;;;3.90;;
75520;SDS011;64102;48.628;9.002;2023-05-28T13:28:04;8.13;;;2.70;;
75520;SDS011;64102;48.628;9.002;2023-05-28T13:30:29;8.25;;;3.60;;
75520;SDS011;64102;48.628;9.002;2023-05-28T13:32:55;6.75;;;1.85;;
75520;SDS011;64102;48.628;9.002;2023-05-28T13:35:20;7.90;;;3.30;;
75520;SDS011;64102;48.628;9.002;2023-05-28T13:37:48;8.20;;;2.15;;
75520;SDS011;64102;48.628;9.002;2023-05-28T13:40:13;8.18;;;3.85;;
75520;SDS011;64102;48.628;9.002;2023-05-28T13:42:39;8.68;;;2.67;;
75520;SDS011;64102;48.628;9.002;2023-05-28T13:45:06;7.60;;;2.80;;
75520;SDS011;64102;48.628;9.002;2023-05-28T13:47:32;7.05;;;3.47;;
75520;SDS011;64102;48.628;9.002;2023-05-28T13:49:58;9.50;;;3.33;;
75520;SDS011;64102;48.628;9.002;2023-05-28T13:52:24;8.70;;;3.63;;
75520;SDS011;64102;48.628;9.002;2023-05-28T13:54:50;8.30;;;2.78;;
75520;SDS011;64102;48.628;9.002;2023-05-28T13:57:15;9.25;;;3.92;;
75520;SDS011;64102;48.628;9.002;2023-05-28T13:59:43;8.32;;;3.65;;
75520;SDS011;64102;48.628;9.002;2023-05-28T14:02:08;7.20;;;3.07;;
75520;SDS011;64102;48.628;9.002;2023-05-28T14:04:34;9.82;;;2.05;;
75520;SDS011;64102;48.628;9.002;2023-05-28T14:06:59;8.07;;;2.13;;
75520;SDS011;64102;48.628;9.002;2023-05-28T14:09:25;7.67;;;2.00;;
75520;SDS011;64102;48.628;9.002;2023-05-28T14:11:50;6.97;;;2.10;;
75520;SDS011;64102;48.628;9.002;2023-05-28T14:14:15;8.27;;;1.45;;
75520;SDS011;64102;48.628;9.002;2023-05-28T14:16:41;6.80;;;1.60;;
75520;SDS011;64102;48.628;9.002;2023-05-28T14:19:06;7.60;;;1.70;;
75520;SDS011;64102;48.628;9.002;2023-05-28T14:21:32;7.43;;;2.47;;
75520;SDS011;64102;48.628;9.002;2023-05-28T14:23:57;6.38;;;2.13;;
75520;SDS011;64102;48.628;9.002;2023-05-28T14:26:22;7.50;;;2.17;;
75520;SDS011;64102;48.628;9.002;2023-05-28T14:28:48;7.33;;;2.40;;
75520;SDS011;64102;48.628;9.002;2023-05-28T14:31:13;7.63;;;1.97;;
75520;SDS011;64102;48.628;9.002;2023-05-28T14:33:38;7.93;;;1.67;;
75520;SDS011;64102;48.628;9.002;2023-05-28T14:36:04;6.50;;;1.10;;
75520;SDS011;64102;48.628;9.002;2023-05-28T14:38:29;7.75;;;1.70;;
75520;SDS011;64102;48.628;9.002;2023-05-28T14:40:55;7.03;;;1.20;;
75520;SDS011;64102;48.628;9.002;2023-05-28T14:43:20;6.88;;;1.20;;
75520;SDS011;64102;48.628;9.002;2023-05-28T14:45:45;9.70;;;1.73;;
75520;SDS011;64102;48.628;9.002;2023-05-28T14:48:11;6.45;;;1.27;;
75520;SDS011;64102;48.628;9.002;2023-05-28T14:50:36;6.53;;;1.30;;